createdAt,value
2023-03-11T00:01:10.407Z,47.20
2023-03-11T00:03:38.149Z,55.28
2023-03-11T00:06:06.716Z,53.47
2023-03-11T00:08:34.393Z,32.50
2023-03-11T00:11:02.128Z,30.25
2023-03-11T00:13:30.866Z,19.08
2023-03-11T00:16:00.456Z,19.10
2023-03-11T00:18:31.410Z,16.10
2023-03-11T00:21:00.077Z,14.13
2023-03-11T00:23:28.432Z,18.92
2023-03-11T00:25:56.710Z,17.27
2023-03-11T00:28:26.604Z,17.63
2023-03-11T00:30:54.470Z,23.05
2023-03-11T00:33:22.036Z,19.75
2023-03-11T00:35:50.721Z,15.57
2023-03-11T00:38:18.628Z,17.55
2023-03-11T00:40:48.067Z,23.17
2023-03-11T00:43:16.662Z,18.75
2023-03-11T00:45:44.488Z,17.10
2023-03-11T00:48:13.423Z,16.48
2023-03-11T00:50:42.986Z,18.67
2023-03-11T00:53:10.735Z,24.20
2023-03-11T00:55:38.575Z,25.17
2023-03-11T00:58:10.840Z,17.35
2023-03-11T01:00:42.166Z,19.00
2023-03-11T01:03:10.608Z,21.13
2023-03-11T01:05:38.331Z,16.10
2023-03-11T01:08:06.218Z,17.58
2023-03-11T01:10:35.610Z,20.42
2023-03-11T01:13:04.946Z,21.55
2023-03-11T01:15:36.138Z,18.88
2023-03-11T01:18:05.532Z,23.38
2023-03-11T01:20:35.845Z,18.15
2023-03-11T01:23:03.758Z,20.48
2023-03-11T01:25:31.742Z,18.40
2023-03-11T01:28:00.081Z,16.88
2023-03-11T01:30:29.327Z,18.25
2023-03-11T01:32:58.265Z,19.30
2023-03-11T01:35:28.069Z,21.25
2023-03-11T01:37:56.597Z,16.15
2023-03-11T01:40:30.553Z,18.83
2023-03-11T01:43:01.432Z,14.38
2023-03-11T01:45:30.084Z,23.35
2023-03-11T01:47:57.744Z,20.15
2023-03-11T01:50:31.135Z,19.40
2023-03-11T01:52:58.854Z,18.13
2023-03-11T01:55:28.206Z,15.52
2023-03-11T01:57:56.729Z,23.65
2023-03-11T02:00:24.764Z,15.25
2023-03-11T02:02:54.531Z,20.15
2023-03-11T02:05:24.619Z,20.77
2023-03-11T02:07:54.975Z,17.50
2023-03-11T02:10:26.382Z,20.13
2023-03-11T02:12:55.109Z,24.45
2023-03-11T02:15:24.752Z,24.13
2023-03-11T02:17:53.781Z,25.85
2023-03-11T02:20:24.476Z,24.08
2023-03-11T02:22:57.052Z,16.85
2023-03-11T02:25:37.331Z,15.05
2023-03-11T02:28:08.880Z,11.82
2023-03-11T02:30:41.134Z,16.42
2023-03-11T02:33:09.770Z,25.90
2023-03-11T02:35:37.543Z,15.43
2023-03-11T02:38:05.105Z,19.02
2023-03-11T02:40:43.477Z,22.75
2023-03-11T02:43:14.512Z,20.38
2023-03-11T02:45:45.248Z,16.05
2023-03-11T02:48:14.474Z,22.40
2023-03-11T02:50:42.237Z,18.70
2023-03-11T02:53:10.126Z,15.85
2023-03-11T02:55:37.842Z,17.77
2023-03-11T02:58:07.483Z,14.90
2023-03-11T03:00:35.511Z,12.35
2023-03-11T03:03:06.747Z,19.85
2023-03-11T03:05:34.660Z,17.60
2023-03-11T03:08:02.990Z,15.95
2023-03-11T03:10:30.856Z,14.50
2023-03-11T03:12:58.813Z,11.75
2023-03-11T03:15:26.674Z,22.00
2023-03-11T03:17:54.616Z,18.88
2023-03-11T03:20:22.810Z,15.57
2023-03-11T03:22:55.199Z,16.70
2023-03-11T03:25:27.365Z,20.20
2023-03-11T03:27:56.418Z,22.33
2023-03-11T03:30:25.313Z,20.48
2023-03-11T03:32:54.764Z,15.52
2023-03-11T03:35:22.315Z,14.43
2023-03-11T03:38:03.866Z,17.73
2023-03-11T03:40:32.235Z,13.45
2023-03-11T03:43:02.377Z,17.67
2023-03-11T03:45:31.830Z,17.85
2023-03-11T03:47:59.261Z,14.15
2023-03-11T03:50:29.205Z,12.77
2023-03-11T03:52:57.704Z,18.42
2023-03-11T03:55:26.696Z,12.65
2023-03-11T03:57:55.789Z,13.02
2023-03-11T04:00:26.458Z,19.55
2023-03-11T04:03:00.145Z,16.10
2023-03-11T04:05:39.012Z,12.75
2023-03-11T04:08:06.414Z,15.82
2023-03-11T04:10:34.544Z,10.43
2023-03-11T04:13:01.948Z,18.67
2023-03-11T04:15:29.563Z,14.27
2023-03-11T04:17:57.010Z,14.65
2023-03-11T04:20:24.507Z,13.43
2023-03-11T04:22:53.739Z,18.05
2023-03-11T04:25:24.122Z,14.60
2023-03-11T04:27:52.874Z,12.88
2023-03-11T04:30:21.944Z,16.60
2023-03-11T04:32:53.277Z,13.10
2023-03-11T04:35:21.175Z,20.65
2023-03-11T04:37:49.073Z,10.57
2023-03-11T04:40:17.399Z,12.38
2023-03-11T04:42:45.532Z,11.98
2023-03-11T04:45:13.411Z,18.77
2023-03-11T04:47:42.822Z,13.05
2023-03-11T04:50:10.618Z,12.43
2023-03-11T04:52:38.054Z,11.00
2023-03-11T04:55:07.450Z,11.73
2023-03-11T04:57:35.133Z,15.55
2023-03-11T05:00:11.922Z,10.20
2023-03-11T05:02:42.867Z,10.38
2023-03-11T05:05:10.838Z,10.48
2023-03-11T05:07:39.264Z,13.38
2023-03-11T05:10:10.808Z,9.60
2023-03-11T05:12:39.840Z,9.67
2023-03-11T05:15:08.738Z,11.77
2023-03-11T05:17:37.552Z,11.75
2023-03-11T05:20:07.498Z,9.18
2023-03-11T05:22:36.177Z,11.02
2023-03-11T05:25:04.317Z,9.43
2023-03-11T05:27:31.893Z,14.30
2023-03-11T05:29:59.557Z,9.68
2023-03-11T05:32:28.472Z,10.15
2023-03-11T05:34:56.277Z,5.82
2023-03-11T05:37:24.055Z,10.43
2023-03-11T05:39:53.180Z,11.82
2023-03-11T05:42:22.255Z,10.60
2023-03-11T05:44:53.107Z,12.45
2023-03-11T05:47:22.778Z,15.30
2023-03-11T05:49:50.984Z,10.05
2023-03-11T05:52:20.319Z,6.47
2023-03-11T05:54:52.662Z,8.23
2023-03-11T05:57:24.670Z,11.95
2023-03-11T05:59:52.345Z,12.38
2023-03-11T06:02:21.181Z,11.32
2023-03-11T06:04:49.867Z,10.88
2023-03-11T06:07:18.047Z,6.20
2023-03-11T06:09:50.578Z,8.63
2023-03-11T06:12:19.702Z,9.07
2023-03-11T06:15:09.188Z,10.00
2023-03-11T06:17:37.835Z,7.22
2023-03-11T06:20:08.380Z,6.57
2023-03-11T06:22:37.689Z,7.93
2023-03-11T06:25:06.932Z,12.50
2023-03-11T06:27:35.021Z,7.53
2023-03-11T06:30:03.092Z,9.30
2023-03-11T06:32:37.147Z,9.20
2023-03-11T06:35:05.849Z,11.23
2023-03-11T06:37:37.247Z,6.63
2023-03-11T06:40:07.501Z,16.67
2023-03-11T06:42:35.957Z,13.52
2023-03-11T06:45:04.720Z,10.80
2023-03-11T06:47:32.780Z,8.02
2023-03-11T06:50:06.490Z,10.55
2023-03-11T06:52:34.925Z,7.43
2023-03-11T06:55:03.683Z,13.98
2023-03-11T06:57:33.183Z,10.13
2023-03-11T07:00:07.775Z,7.72
2023-03-11T07:05:04.924Z,8.13
2023-03-11T07:07:32.713Z,13.57
2023-03-11T07:10:01.610Z,9.10
2023-03-11T07:12:29.012Z,10.65
2023-03-11T07:14:57.826Z,11.48
2023-03-11T07:17:26.287Z,13.23
2023-03-11T07:19:54.280Z,10.48
2023-03-11T07:22:21.703Z,11.25
2023-03-11T07:24:49.405Z,11.40
2023-03-11T07:27:17.748Z,10.13
2023-03-11T07:29:45.230Z,15.70
2023-03-11T07:32:12.630Z,12.75
2023-03-11T07:34:40.071Z,10.77
2023-03-11T07:37:07.425Z,15.35
2023-03-11T07:39:34.864Z,11.23
2023-03-11T07:42:03.752Z,9.20
2023-03-11T07:44:37.658Z,10.52
2023-03-11T07:47:06.204Z,12.43
2023-03-11T07:49:34.751Z,7.90
2023-03-11T07:52:02.274Z,10.95
2023-03-11T07:54:29.755Z,8.68
2023-03-11T07:56:57.818Z,7.82
2023-03-11T07:59:26.324Z,7.38
2023-03-11T08:01:53.720Z,14.23
2023-03-11T08:04:21.232Z,10.02
2023-03-11T08:06:48.860Z,10.65
2023-03-11T08:09:16.424Z,7.53
2023-03-11T08:11:43.897Z,11.32
2023-03-11T08:14:11.721Z,16.08
2023-03-11T08:16:40.697Z,9.82
2023-03-11T08:19:10.895Z,13.90
2023-03-11T08:21:38.354Z,11.43
2023-03-11T08:24:07.007Z,12.38
2023-03-11T08:26:34.675Z,11.70
2023-03-11T08:29:02.156Z,10.77
2023-03-11T08:31:33.177Z,11.25
2023-03-11T08:34:03.818Z,13.45
2023-03-11T08:36:32.062Z,12.23
2023-03-11T08:38:59.794Z,20.58
2023-03-11T08:41:28.175Z,14.95
2023-03-11T08:43:56.539Z,15.70
2023-03-11T08:46:30.446Z,12.98
2023-03-11T08:49:00.998Z,12.27
2023-03-11T08:51:30.527Z,13.48
2023-03-11T08:53:58.678Z,11.38
2023-03-11T08:56:26.438Z,15.05
2023-03-11T08:58:54.300Z,14.80
2023-03-11T09:01:24.097Z,14.35
2023-03-11T09:03:52.427Z,11.38
2023-03-11T09:06:20.129Z,14.40
2023-03-11T09:08:49.376Z,14.98
2023-03-11T09:11:18.546Z,11.38
2023-03-11T09:13:45.992Z,10.15
2023-03-11T09:16:20.996Z,17.63
2023-03-11T09:18:49.009Z,17.10
2023-03-11T09:21:16.668Z,13.10
2023-03-11T09:23:44.678Z,7.50
2023-03-11T09:26:13.049Z,7.82
2023-03-11T09:28:41.540Z,5.38
2023-03-11T09:31:09.754Z,10.48
2023-03-11T09:33:42.067Z,10.45
2023-03-11T09:36:14.930Z,7.47
2023-03-11T09:38:43.281Z,5.90
2023-03-11T09:41:33.111Z,8.90
2023-03-11T09:44:22.266Z,7.22
2023-03-11T09:47:04.281Z,11.13
2023-03-11T09:50:04.749Z,7.10
2023-03-11T09:52:44.827Z,5.28
2023-03-11T09:55:56.508Z,8.45
2023-03-11T09:58:37.577Z,10.52
2023-03-11T10:03:40.397Z,9.00
2023-03-11T10:06:21.871Z,12.02
2023-03-11T10:09:41.262Z,5.70
2023-03-11T10:12:36.069Z,9.13
2023-03-11T10:15:22.203Z,7.72
2023-03-11T10:17:55.468Z,9.00
2023-03-11T10:20:46.119Z,9.18
2023-03-11T10:23:16.898Z,5.55
2023-03-11T10:28:33.513Z,12.82
2023-03-11T10:31:05.174Z,9.23
2023-03-11T10:33:48.915Z,8.48
2023-03-11T10:36:24.242Z,9.82
2023-03-11T10:38:53.853Z,12.38
2023-03-11T10:41:44.596Z,6.10
2023-03-11T10:44:14.981Z,13.52
2023-03-11T10:46:42.402Z,16.67
2023-03-11T10:49:15.458Z,13.00
2023-03-11T10:51:47.497Z,12.95
2023-03-11T10:54:46.242Z,9.40
2023-03-11T10:57:29.331Z,12.23
2023-03-11T10:59:59.102Z,6.50
2023-03-11T11:02:26.832Z,6.45
2023-03-11T11:05:18.188Z,63.88
2023-03-11T11:07:50.649Z,5.35
2023-03-11T11:10:24.261Z,7.80
2023-03-11T11:12:54.202Z,10.18
2023-03-11T11:15:31.388Z,8.23
2023-03-11T11:18:05.958Z,9.70
2023-03-11T11:20:34.463Z,9.75
2023-03-11T11:23:03.893Z,11.15
2023-03-11T11:25:42.683Z,8.85
2023-03-11T11:28:19.774Z,9.52
2023-03-11T11:31:01.162Z,9.50
2023-03-11T11:33:32.503Z,8.30
2023-03-11T11:36:03.727Z,8.40
2023-03-11T11:38:34.710Z,9.40
2023-03-11T11:43:34.344Z,12.18
2023-03-11T11:46:10.916Z,12.20
2023-03-11T11:48:47.345Z,9.23
2023-03-11T11:51:42.801Z,6.07
2023-03-11T11:54:30.467Z,15.30
2023-03-11T11:57:00.318Z,11.88
2023-03-11T11:59:28.578Z,7.50
2023-03-11T12:02:14.340Z,7.90
2023-03-11T12:05:07.853Z,12.77
2023-03-11T12:07:44.181Z,8.65
2023-03-11T12:10:22.881Z,4.03
2023-03-11T12:13:19.095Z,7.40
2023-03-11T12:15:51.921Z,8.35
2023-03-11T12:18:50.321Z,9.55
2023-03-11T12:21:36.528Z,7.38
2023-03-11T12:24:29.961Z,6.50
2023-03-11T12:27:05.154Z,13.52
2023-03-11T12:29:43.218Z,6.57
2023-03-11T12:32:29.259Z,9.05
2023-03-11T12:35:04.576Z,9.27
2023-03-11T12:37:33.005Z,10.13
2023-03-11T12:40:01.885Z,8.40
2023-03-11T12:42:40.827Z,12.48
2023-03-11T12:45:48.528Z,10.23
2023-03-11T12:48:25.960Z,9.88
2023-03-11T12:50:54.512Z,8.57
2023-03-11T12:53:43.139Z,7.95
2023-03-11T12:56:29.298Z,10.75
2023-03-11T12:59:00.186Z,5.22
2023-03-11T13:01:51.660Z,10.23
2023-03-11T13:04:40.387Z,5.15
2023-03-11T13:07:22.707Z,8.88
2023-03-11T13:10:10.561Z,8.40
2023-03-11T13:12:49.801Z,5.93
2023-03-11T13:15:20.329Z,12.30
2023-03-11T13:18:18.885Z,8.77
2023-03-11T13:20:49.364Z,8.15
2023-03-11T13:23:25.697Z,6.90
2023-03-11T13:25:53.741Z,5.78
2023-03-11T13:28:51.873Z,10.05
2023-03-11T13:31:29.872Z,8.20
2023-03-11T13:34:18.472Z,9.20
2023-03-11T13:37:09.626Z,9.05
2023-03-11T13:42:21.681Z,7.82
2023-03-11T13:44:49.899Z,3.60
2023-03-11T13:47:19.051Z,8.57
2023-03-11T13:49:51.277Z,7.50
2023-03-11T13:52:27.431Z,7.78
2023-03-11T13:55:00.945Z,11.10
2023-03-11T13:57:31.936Z,7.75
2023-03-11T14:02:37.936Z,6.45
2023-03-11T14:05:16.372Z,8.38
2023-03-11T14:07:43.811Z,5.75
2023-03-11T14:10:20.370Z,7.10
2023-03-11T14:12:48.664Z,9.18
2023-03-11T14:15:21.670Z,8.27
2023-03-11T14:17:51.568Z,4.65
2023-03-11T14:20:29.217Z,8.93
2023-03-11T14:22:56.917Z,8.63
2023-03-11T14:25:27.241Z,6.43
2023-03-11T14:28:01.865Z,9.43
2023-03-11T14:30:32.256Z,8.40
2023-03-11T14:33:03.981Z,7.82
2023-03-11T14:35:33.775Z,12.65
2023-03-11T14:38:01.718Z,6.68
2023-03-11T14:40:37.723Z,5.80
2023-03-11T14:43:07.711Z,4.78
2023-03-11T14:45:37.665Z,4.18
2023-03-11T14:48:11.004Z,10.13
2023-03-11T14:50:38.929Z,17.10
2023-03-11T14:53:28.960Z,6.10
2023-03-11T14:56:05.369Z,5.40
2023-03-11T14:58:38.692Z,4.95
2023-03-11T15:01:21.616Z,6.43
2023-03-11T15:03:51.923Z,6.20
2023-03-11T15:06:30.076Z,11.02
2023-03-11T15:09:14.722Z,4.68
2023-03-11T15:11:57.638Z,11.13
2023-03-11T15:14:33.174Z,6.82
2023-03-11T15:17:34.710Z,6.65
2023-03-11T15:20:07.631Z,9.48
2023-03-11T15:22:38.938Z,6.20
2023-03-11T15:25:18.408Z,5.35
2023-03-11T15:27:46.814Z,7.88
2023-03-11T15:30:25.360Z,5.88
2023-03-11T15:32:54.114Z,7.90
2023-03-11T15:35:31.316Z,5.50
2023-03-11T15:38:23.597Z,7.72
2023-03-11T15:40:56.218Z,8.43
2023-03-11T15:43:31.008Z,9.35
2023-03-11T15:46:01.238Z,7.07
2023-03-11T15:48:30.053Z,5.50
2023-03-11T15:50:59.590Z,6.57
2023-03-11T15:53:28.992Z,6.03
2023-03-11T15:56:07.537Z,9.20
2023-03-11T15:58:38.230Z,8.40
2023-03-11T16:01:05.954Z,11.20
2023-03-11T16:03:33.491Z,28.77
2023-03-11T16:06:00.982Z,12.10
2023-03-11T16:08:28.747Z,8.73
2023-03-11T16:10:58.040Z,4.47
2023-03-11T16:13:25.549Z,11.27
2023-03-11T16:15:53.211Z,18.35
2023-03-11T16:18:20.682Z,10.23
2023-03-11T16:20:51.704Z,9.23
2023-03-11T16:25:49.914Z,9.48
2023-03-11T16:28:17.896Z,9.00
2023-03-11T16:30:45.463Z,9.98
2023-03-11T16:33:12.851Z,14.65
2023-03-11T16:35:40.282Z,8.98
2023-03-11T16:38:08.648Z,9.50
2023-03-11T16:40:36.814Z,8.73
2023-03-11T16:43:09.923Z,16.60
2023-03-11T16:45:37.445Z,14.65
2023-03-11T16:48:05.649Z,9.60
2023-03-11T16:50:34.304Z,7.35
2023-03-11T16:53:03.126Z,11.95
2023-03-11T16:55:30.894Z,8.57
2023-03-11T16:57:58.648Z,8.65
2023-03-11T17:00:26.462Z,9.27
2023-03-11T17:02:54.107Z,16.17
2023-03-11T17:05:21.914Z,5.93
2023-03-11T17:07:53.445Z,7.97
2023-03-11T17:10:21.047Z,8.63
2023-03-11T17:12:48.620Z,10.38
2023-03-11T17:15:16.380Z,7.57
2023-03-11T17:17:43.885Z,9.02
2023-03-11T17:20:12.732Z,5.68
2023-03-11T17:22:40.578Z,9.95
2023-03-11T17:25:08.494Z,10.95
2023-03-11T17:27:37.280Z,10.38
2023-03-11T17:30:06.485Z,10.15
2023-03-11T17:32:34.158Z,23.92
2023-03-11T17:35:01.628Z,7.55
2023-03-11T17:37:29.428Z,8.85
2023-03-11T17:39:57.184Z,10.30
2023-03-11T17:42:25.155Z,10.65
2023-03-11T17:44:56.237Z,10.02
2023-03-11T17:47:26.115Z,10.38
2023-03-11T17:49:54.170Z,13.57
2023-03-11T17:52:21.789Z,18.63
2023-03-11T17:54:49.922Z,14.82
2023-03-11T17:57:17.587Z,28.08
2023-03-11T17:59:45.800Z,36.85
2023-03-11T18:02:14.428Z,54.75
2023-03-11T18:04:46.090Z,30.52
2023-03-11T18:07:13.789Z,65.80
2023-03-11T18:09:41.292Z,41.22
2023-03-11T18:12:09.005Z,21.67
2023-03-11T18:14:37.206Z,9.60
2023-03-11T18:17:05.083Z,18.90
2023-03-11T18:19:33.566Z,17.52
2023-03-11T18:22:01.138Z,26.42
2023-03-11T18:24:28.925Z,28.02
2023-03-11T18:26:56.519Z,15.38
2023-03-11T18:29:24.425Z,50.05
2023-03-11T18:31:52.045Z,28.27
2023-03-11T18:34:19.891Z,119.15
2023-03-11T18:36:49.157Z,142.85
2023-03-11T18:39:16.827Z,117.60
2023-03-11T18:41:44.422Z,104.97
2023-03-11T18:44:12.813Z,37.45
2023-03-11T18:46:42.399Z,36.33
2023-03-11T18:49:13.186Z,46.65
2023-03-11T18:51:41.126Z,38.22
2023-03-11T18:54:08.864Z,33.47
2023-03-11T18:56:36.455Z,19.27
2023-03-11T18:59:04.361Z,76.35
2023-03-11T19:01:33.029Z,67.47
2023-03-11T19:04:00.945Z,50.10
2023-03-11T19:06:29.376Z,33.60
2023-03-11T19:08:57.980Z,92.72
2023-03-11T19:11:27.591Z,91.10
2023-03-11T19:13:55.176Z,102.97
2023-03-11T19:16:24.422Z,57.80
2023-03-11T19:18:53.902Z,30.85
2023-03-11T19:21:22.422Z,30.77
2023-03-11T19:23:52.761Z,14.43
2023-03-11T19:26:22.311Z,39.58
2023-03-11T19:28:51.638Z,32.60
2023-03-11T19:31:19.480Z,60.05
2023-03-11T19:33:50.023Z,64.07
2023-03-11T19:36:17.559Z,85.80
2023-03-11T19:38:45.071Z,62.15
2023-03-11T19:41:20.436Z,56.08
2023-03-11T19:43:49.341Z,71.15
2023-03-11T19:46:20.286Z,31.50
2023-03-11T19:51:17.204Z,82.45
2023-03-11T19:53:46.010Z,169.27
2023-03-11T19:56:13.573Z,108.60
2023-03-11T19:58:42.635Z,32.38
2023-03-11T20:01:17.956Z,22.67
2023-03-11T20:03:45.659Z,19.65
2023-03-11T20:06:16.372Z,22.25
2023-03-11T20:08:44.330Z,88.85
2023-03-11T20:11:12.272Z,139.30
2023-03-11T20:13:42.661Z,180.68
2023-03-11T20:16:13.824Z,105.95
2023-03-11T20:18:41.866Z,71.38
2023-03-11T20:21:12.432Z,51.63
2023-03-11T20:23:40.547Z,39.15
2023-03-11T20:26:12.161Z,68.70
2023-03-11T20:28:40.288Z,64.07
2023-03-11T20:31:24.352Z,73.85
2023-03-11T20:33:53.408Z,41.30
2023-03-11T20:36:24.766Z,32.85
2023-03-11T20:38:54.329Z,47.60
2023-03-11T20:41:23.538Z,40.25
2023-03-11T20:43:56.450Z,35.88
2023-03-11T20:46:24.614Z,39.88
2023-03-11T20:48:52.398Z,27.85
2023-03-11T20:51:20.849Z,31.20
2023-03-11T20:53:49.150Z,29.98
2023-03-11T20:56:19.972Z,23.65
2023-03-11T20:58:50.858Z,21.33
2023-03-11T21:01:27.200Z,31.38
2023-03-11T21:03:57.558Z,30.05
2023-03-11T21:06:27.768Z,55.92
2023-03-11T21:08:57.108Z,36.30
2023-03-11T21:11:25.829Z,27.85
2023-03-11T21:13:54.782Z,29.60
2023-03-11T21:16:23.569Z,35.35
2023-03-11T21:18:51.447Z,29.63
2023-03-11T21:21:19.528Z,27.90
2023-03-11T21:23:48.242Z,26.67
2023-03-11T21:26:17.379Z,29.10
2023-03-11T21:28:47.092Z,37.67
2023-03-11T21:31:20.557Z,48.50
2023-03-11T21:33:48.997Z,45.63
2023-03-11T21:36:17.657Z,33.85
2023-03-11T21:38:47.451Z,37.05
2023-03-11T21:41:18.152Z,32.95
2023-03-11T21:43:46.737Z,32.25
2023-03-11T21:46:17.084Z,36.45
2023-03-11T21:48:46.141Z,30.10
2023-03-11T21:51:15.300Z,39.92
2023-03-11T21:53:43.597Z,32.38
2023-03-11T21:56:12.360Z,35.60
2023-03-11T21:58:40.662Z,33.17
2023-03-11T22:01:09.268Z,35.08
2023-03-11T22:03:37.835Z,31.67
2023-03-11T22:06:09.341Z,34.78
2023-03-11T22:08:37.017Z,32.72
2023-03-11T22:11:08.894Z,38.40
2023-03-11T22:13:36.902Z,39.17
2023-03-11T22:16:06.285Z,61.50
2023-03-11T22:18:34.419Z,40.40
2023-03-11T22:21:02.191Z,26.83
2023-03-11T22:23:29.808Z,45.70
2023-03-11T22:25:57.361Z,29.08
2023-03-11T22:28:25.193Z,30.25
2023-03-11T22:30:53.259Z,29.75
2023-03-11T22:33:20.849Z,27.48
2023-03-11T22:35:56.073Z,27.42
2023-03-11T22:38:23.806Z,38.65
2023-03-11T22:40:51.828Z,43.08
2023-03-11T22:43:19.452Z,33.00
2023-03-11T22:45:47.024Z,29.58
2023-03-11T22:48:14.579Z,39.33
2023-03-11T22:50:45.289Z,28.90
2023-03-11T22:53:13.457Z,48.03
2023-03-11T22:55:42.610Z,38.85
2023-03-11T22:58:10.589Z,46.10
2023-03-11T23:00:38.710Z,48.85
2023-03-11T23:03:06.417Z,29.67
2023-03-11T23:05:40.766Z,33.88
2023-03-11T23:08:10.566Z,40.15
2023-03-11T23:10:40.922Z,67.85
2023-03-11T23:13:09.671Z,61.95
2023-03-11T23:15:40.400Z,96.00
2023-03-11T23:18:08.264Z,74.65
2023-03-11T23:20:37.887Z,85.60
2023-03-11T23:23:05.965Z,56.25
2023-03-11T23:25:33.784Z,58.10
2023-03-11T23:28:03.678Z,46.30
2023-03-11T23:30:31.916Z,34.17
2023-03-11T23:33:00.334Z,33.50
2023-03-11T23:35:28.041Z,30.90
2023-03-11T23:37:56.366Z,21.77
2023-03-11T23:40:24.193Z,25.90
2023-03-11T23:42:52.701Z,25.83
2023-03-11T23:45:20.140Z,30.77
2023-03-11T23:47:47.604Z,25.73
2023-03-11T23:50:15.719Z,43.80
2023-03-11T23:52:43.539Z,44.83
2023-03-11T23:55:12.058Z,34.45
2023-03-11T23:57:39.916Z,36.60
